Flight Track Log - Related Links

Times and Time Zones

All times are in EDT time to prevent confusion due to time zone crossing. See the UCA3598 flight status page for this flight to view local times or setup timezone preferences in your user account.

Time Position Orientation Groundspeed Altitude Reporting Facility
EDT Latitude Longitude Course Direction KTS km/h feet Rate Location/Type
Thu 22:17:23 38.9500 -77.5167 North 151 280 1,600  Level Potomac TRACON
Thu 22:18:23 38.9667 -77.5667 293° West 186 344 2,900 1,381 Climbing Potomac TRACON
Thu 22:19:29 38.9833 -77.6333 288° West 185 343 4,500 1,353 Climbing Potomac TRACON
Thu 22:20:05 39.0144 -77.6594 327° Northwest 189 349 5,200 1,113 Climbing Washington Center
Thu 22:21:00 39.3332 -77.4500 North  Level FlightAware Approximate
Thu 22:21:06 39.0578 -77.6847 336° Northwest 196 364 6,300  Level Washington Center
Thu 22:22:00 39.4132 -77.4500 North  Level FlightAware Approximate
Thu 22:22:04 39.1117 -77.7022 346° North 204 378 7,400  Level Washington Center
Thu 22:23:05 39.1681 -77.6986 North 204 378 8,600 1,240 Climbing Washington Center
Thu 22:24:05 39.2222 -77.7000 359° North 199 369 9,900 1,220 Climbing Washington Center
Thu 22:25:03 39.2789 -77.6775 17° North 221 409 11,000 1,059 Climbing Washington Center
Thu 22:26:04 39.3358 -77.6444 24° Northeast 221 409 12,000 1,082 Climbing Washington Center
Thu 22:27:05 39.3842 -77.6108 28° Northeast 226 418 13,200 1,091 Climbing Washington Center
Thu 22:28:05 39.4411 -77.5775 24° Northeast 226 418 14,200 1,017 Climbing Washington Center
Thu 22:29:03 39.5000 -77.5414 25° Northeast 226 418 15,200 951 Climbing Washington Center
Thu 22:30:49 39.6144 -77.4711 25° Northeast 250 463 16,800 867 Climbing New York Center
Thu 22:31:49 39.6822 -77.4533 11° North 245 454 17,600 700 Climbing New York Center
Thu 22:32:49 39.7511 -77.4517 North 245 454 18,200 400 Climbing New York Center
Thu 22:33:49 39.8200 -77.4528 359° North 250 463 18,400 400 Climbing New York Center
Thu 22:34:49 39.8908 -77.4514 North 250 463 19,000 300 Climbing New York Center
Thu 22:35:49 39.9681 -77.4506 360° North 262 486 19,000  Level New York Center
Thu 22:36:49 40.0456 -77.4472 North 272 504 19,000  Level New York Center
Thu 22:37:49 40.1164 -77.4458 North 278 515 19,000  Level New York Center
Thu 22:38:49 40.2019 -77.4458 360° North 278 515 19,000  Level New York Center
Thu 22:39:49 40.2728 -77.4472 359° North 278 515 19,000  Level New York Center
Thu 22:40:49 40.3606 -77.4447 North 272 504 19,000  Level New York Center
Thu 22:41:49 40.4294 -77.4433 North 277 513 19,000  Level New York Center
Thu 22:42:49 40.5156 -77.4325 North 277 513 19,000  Level New York Center
Thu 22:43:49 40.5769 -77.3783 34° Northeast 271 502 19,000  Level New York Center
Thu 22:44:49 40.6531 -77.3172 31° Northeast 291 539 19,000  Level New York Center
Thu 22:45:49 40.7167 -77.2631 33° Northeast 297 550 19,000  Level New York Center
Thu 22:46:49 40.7844 -77.2064 32° Northeast 297 550 19,000  Level New York Center
Thu 22:47:49 40.8519 -77.1497 32° Northeast 297 550 19,000  Level New York Center
Thu 22:48:49 40.9219 -77.0903 33° Northeast 297 550 19,000  Level New York Center
Thu 22:49:49 40.9917 -77.0336 32° Northeast 297 550 19,000 -50 Level New York Center
Thu 22:50:49 41.0594 -76.9736 34° Northeast 297 550 18,900 -600 Descending New York Center
Thu 22:51:49 41.1333 -76.9144 31° Northeast 297 550 17,800 -850 Descending New York Center
Thu 22:52:49 41.2075 -76.8494 33° Northeast 297 550 17,200 -850 Descending New York Center
Thu 22:53:49 41.2814 -76.7869 32° Northeast 302 560 16,100 -1,100 Descending New York Center
Thu 22:54:49 41.3533 -76.7242 33° Northeast 302 560 15,000 -550 Descending New York Center
Thu 22:55:49 41.4208 -76.6667 33° Northeast 295 546 15,000 -150 Level New York Center
Thu 22:56:49 41.4950 -76.6011 33° Northeast 289 536 14,700 -650 Descending New York Center
Thu 22:57:49 41.5622 -76.5458 32° Northeast 289 536 13,700 -950 Descending New York Center
Thu 22:58:49 41.6297 -76.4853 34° Northeast 289 536 12,800 -950 Descending New York Center
Thu 22:59:49 41.6903 -76.4347 32° Northeast 294 544 11,800 -1,000 Descending New York Center
Thu 23:00:49 41.7578 -76.3767 33° Northeast 294 544 10,800 -1,050 Descending New York Center
Thu 23:01:49 41.8272 -76.3156 33° Northeast 282 523 9,700 -1,050 Descending New York Center
Thu 23:02:49 41.8903 -76.2594 34° Northeast 275 509 8,700 -950 Descending New York Center
Thu 23:03:49 41.9531 -76.2061 32° Northeast 270 501 7,800 -950 Descending New York Center
Thu 23:04:49 42.0169 -76.1750 20° North 261 483 6,800 -950 Descending New York Center
Thu 23:05:49 42.0892 -76.1419 19° North 256 475 5,900 -1,000 Descending New York Center
Thu 23:06:49 42.1467 -76.1131 20° North 233 431 4,800 -900 Descending New York Center
Thu 23:07:49 42.1997 -76.0922 16° North 213 394 4,100 -650 Descending New York Center
Thu 23:08:49 42.2528 -76.0714 16° North 201 372 3,500 -350 Descending New York Center
Thu 23:09:49 42.2711 -76.0336 57° Northeast 140 259 3,400 -550 Descending New York Center
Thu 23:10:49 42.2450 -76.0089 145° Southeast 72 134 2,400 -600 Descending New York Center
Thu 23:11:49 42.2397 -75.9861 107° East 72 134 2,200 -200 Descending New York Center
Thu 23:13:00 42.2084 -75.9796 160° South  Level Estimated
Thu 23:20:00 42.2084 -75.9796 North  Level Estimated
Thu 23:21:00 42.2084 -75.9796 131° Southeast  Level Estimated
Thu 23:22:00 42.2084 -75.9796 North  Level Estimated

Login

Don't have an account? Register now (free) for customized features, flight alerts, and more!